Time;durP1;ratioP1;P1;durP2;ratioP2;P2;SDS_P1;SDS_P2;PMS_P1;PMS_P2;Temp;Humidity;BMP_temperature;BMP_pressure;BME280_temperature;BME280_humidity;BME280_pressure;Samples;Min_cycle;Max_cycle;Signal;HPM_P1;HPM_P2
2023/01/29 00:00:39;;;;;;;27.23;21.45;;;3.00;99.90;;;;;;4960681;28;90140;-32
2023/01/29 00:03:05;;;;;;;31.50;22.00;;;3.00;99.90;;;;;;4961088;28;88565;-30
2023/01/29 00:05:31;;;;;;;30.80;22.75;;;3.00;99.90;;;;;;4959611;28;89270;-31
2023/01/29 00:07:56;;;;;;;31.27;22.88;;;3.00;99.90;;;;;;4960835;28;89903;-30
2023/01/29 00:10:24;;;;;;;32.63;24.30;;;3.00;99.90;;;;;;4961828;28;88513;-31
2023/01/29 00:12:50;;;;;;;34.08;24.73;;;3.00;99.90;;;;;;4959492;28;89403;-31
2023/01/29 00:15:16;;;;;;;30.73;24.05;;;3.00;99.90;;;;;;4960701;28;89769;-30
2023/01/29 00:17:42;;;;;;;29.10;22.58;;;3.00;99.90;;;;;;4960610;28;89748;-33
2023/01/29 00:20:08;;;;;;;35.17;24.15;;;3.00;99.90;;;;;;4960755;28;90040;-34
2023/01/29 00:22:34;;;;;;;30.60;25.20;;;3.00;99.90;;;;;;4961187;28;89510;-31
2023/01/29 00:24:59;;;;;;;30.40;22.10;;;3.00;99.90;;;;;;4960420;28;90160;-32
2023/01/29 00:27:25;;;;;;;29.75;21.77;;;3.00;99.90;;;;;;4960749;28;89437;-31
2023/01/29 00:30:08;;;;;;;26.13;23.33;;;3.00;99.90;;;;;;4960793;28;90084;-31
2023/01/29 00:32:34;;;;;;;31.10;24.13;;;3.00;99.90;;;;;;4960908;28;88408;-32
2023/01/29 00:35:00;;;;;;;28.83;22.67;;;2.90;99.90;;;;;;4960868;28;91328;-32
2023/01/29 00:37:26;;;;;;;27.77;24.55;;;3.00;99.90;;;;;;4960670;28;91156;-31
2023/01/29 00:39:51;;;;;;;28.27;24.17;;;3.00;99.90;;;;;;4960132;28;89497;-31
2023/01/29 00:45:01;;;;;;;32.50;24.88;;;3.00;99.90;;;;;;4960557;28;90382;-32
2023/01/29 00:47:32;;;;;;;29.17;23.20;;;3.00;99.90;;;;;;4960699;28;89613;-32
2023/01/29 00:49:58;;;;;;;30.55;24.88;;;3.00;99.90;;;;;;4959886;28;89591;-31
2023/01/29 00:52:24;;;;;;;36.67;25.27;;;3.00;99.90;;;;;;4960479;28;89059;-33
2023/01/29 00:54:55;;;;;;;28.48;24.60;;;3.00;99.90;;;;;;4959619;28;90462;-31
2023/01/29 00:57:22;;;;;;;29.42;23.65;;;3.00;99.90;;;;;;4960298;28;89346;-31
2023/01/29 00:59:47;;;;;;;29.92;24.95;;;3.00;99.90;;;;;;4959821;28;89897;-34
2023/01/29 01:04:57;;;;;;;30.95;24.27;;;3.00;99.90;;;;;;4959336;28;90199;-34
2023/01/29 01:07:23;;;;;;;30.10;23.35;;;3.00;99.90;;;;;;4960089;28;90721;-31
2023/01/29 01:12:33;;;;;;;30.20;23.95;;;3.00;99.90;;;;;;4960643;28;88942;-32
2023/01/29 01:14:59;;;;;;;32.28;25.65;;;3.00;99.90;;;;;;4959545;28;90146;-33
2023/01/29 01:17:24;;;;;;;31.45;25.80;;;3.00;99.90;;;;;;4959676;28;89259;-32
2023/01/29 01:19:50;;;;;;;27.90;23.95;;;3.10;99.90;;;;;;4959591;28;89250;-31
2023/01/29 01:22:16;;;;;;;31.25;23.75;;;3.00;99.90;;;;;;4959640;28;88736;-33
2023/01/29 01:24:41;;;;;;;32.75;25.92;;;3.00;99.90;;;;;;4959367;28;90096;-32
2023/01/29 01:27:07;;;;;;;28.77;23.20;;;3.00;99.90;;;;;;4958948;28;89927;-31
2023/01/29 01:29:33;;;;;;;28.95;25.55;;;3.10;99.90;;;;;;4960238;28;90112;-32
2023/01/29 01:31:59;;;;;;;31.17;24.27;;;3.10;99.90;;;;;;4958953;28;89086;-32
2023/01/29 01:34:26;;;;;;;30.80;23.98;;;3.10;99.90;;;;;;4959923;28;90172;-31
2023/01/29 01:36:52;;;;;;;31.77;23.55;;;3.10;99.90;;;;;;4960118;28;89296;-32
2023/01/29 01:39:18;;;;;;;31.15;25.92;;;3.10;99.90;;;;;;4958892;28;89756;-31
2023/01/29 01:41:45;;;;;;;27.90;22.70;;;3.10;99.90;;;;;;4959293;28;89051;-34
2023/01/29 01:44:48;;;;;;;28.40;25.42;;;3.10;99.90;;;;;;4959652;28;89799;-33
2023/01/29 01:47:16;;;;;;;34.05;25.00;;;3.10;99.90;;;;;;4959252;28;90437;-32
2023/01/29 01:49:43;;;;;;;29.33;23.73;;;3.10;99.90;;;;;;4958315;28;89686;-32
2023/01/29 01:52:11;;;;;;;28.52;24.90;;;3.10;99.90;;;;;;4959601;28;88464;-32
2023/01/29 01:54:37;;;;;;;30.45;24.50;;;3.10;99.90;;;;;;4959735;28;89871;-32
2023/01/29 01:57:10;;;;;;;32.15;24.58;;;3.20;99.90;;;;;;4959112;28;90403;-31
2023/01/29 01:59:38;;;;;;;32.03;24.65;;;3.10;99.90;;;;;;4959401;28;90825;-33
2023/01/29 02:10:20;;;;;;;29.95;23.58;;;3.10;99.90;;;;;;4959064;28;89920;-31
2023/01/29 02:12:46;;;;;;;34.10;25.30;;;3.10;99.90;;;;;;4959240;28;88068;-31
2023/01/29 02:15:12;;;;;;;31.33;24.92;;;3.10;99.90;;;;;;4959412;28;90245;-32
2023/01/29 02:17:38;;;;;;;30.05;23.10;;;3.10;99.90;;;;;;4959093;28;90115;-33
2023/01/29 02:20:11;;;;;;;28.52;24.92;;;3.10;99.90;;;;;;4958699;28;89548;-32
2023/01/29 02:23:14;;;;;;;27.52;24.77;;;3.10;99.90;;;;;;4956697;28;88531;-31
2023/01/29 02:26:17;;;;;;;30.75;22.73;;;3.10;99.90;;;;;;4958531;28;90074;-33
2023/01/29 02:29:21;;;;;;;32.38;22.02;;;3.10;99.90;;;;;;4959046;28;89849;-31
2023/01/29 02:31:52;;;;;;;31.40;25.08;;;3.10;99.90;;;;;;4958673;28;89746;-32
2023/01/29 02:34:29;;;;;;;26.70;22.88;;;3.10;99.90;;;;;;4958588;28;88389;-33
2023/01/29 02:37:24;;;;;;;33.85;23.73;;;3.10;99.90;;;;;;4959209;28;89137;-34
2023/01/29 02:40:00;;;;;;;29.42;24.15;;;3.20;99.90;;;;;;4959311;28;89476;-32
2023/01/29 02:42:53;;;;;;;33.42;24.92;;;3.10;99.90;;;;;;4962534;28;90303;-31
2023/01/29 02:45:25;;;;;;;33.63;27.95;;;3.10;99.90;;;;;;4962504;28;88196;-32
2023/01/29 02:47:59;;;;;;;30.25;24.45;;;3.10;99.90;;;;;;4961973;28;91077;-34
2023/01/29 02:50:40;;;;;;;30.58;24.80;;;3.10;99.90;;;;;;4961638;28;90969;-31
2023/01/29 02:53:15;;;;;;;33.17;25.33;;;3.10;99.90;;;;;;4961897;28;90485;-32
2023/01/29 02:55:47;;;;;;;27.45;24.10;;;3.10;99.90;;;;;;4961774;28;88826;-33
2023/01/29 02:58:19;;;;;;;31.15;26.38;;;3.20;99.90;;;;;;4962259;28;89177;-33
2023/01/29 03:00:48;;;;;;;27.13;23.48;;;3.10;99.90;;;;;;4961963;28;89790;-33
2023/01/29 03:03:21;;;;;;;27.48;24.55;;;3.20;99.90;;;;;;4962182;28;89668;-34
2023/01/29 03:05:56;;;;;;;28.13;25.10;;;3.10;99.90;;;;;;4962113;28;89966;-32
2023/01/29 03:08:36;;;;;;;27.88;23.08;;;3.20;99.90;;;;;;4962159;28;89832;-33
2023/01/29 03:11:05;;;;;;;31.70;23.75;;;3.20;99.90;;;;;;4961916;28;89935;-32
2023/01/29 03:13:40;;;;;;;31.33;24.95;;;3.20;99.90;;;;;;4961993;28;89514;-31
2023/01/29 03:16:19;;;;;;;33.72;25.13;;;3.20;99.90;;;;;;4961671;28;89479;-33
2023/01/29 03:18:52;;;;;;;29.63;24.55;;;3.20;99.90;;;;;;4961439;28;91457;-31
2023/01/29 03:32:39;;;;;;;24.95;21.52;;;3.20;99.90;;;;;;4961588;28;89580;-31
2023/01/29 03:35:08;;;;;;;28.15;24.55;;;3.20;99.90;;;;;;4961626;28;87632;-31
2023/01/29 03:37:43;;;;;;;29.38;23.98;;;3.20;99.90;;;;;;4961475;28;89907;-32
2023/01/29 03:40:10;;;;;;;31.95;24.70;;;3.10;99.90;;;;;;4961323;28;89870;-34
2023/01/29 03:42:54;;;;;;;34.08;26.92;;;3.20;99.90;;;;;;4960756;28;93496;-37
2023/01/29 03:45:39;;;;;;;33.72;25.10;;;3.10;99.90;;;;;;4960803;28;90568;-33
2023/01/29 03:48:32;;;;;;;29.90;22.50;;;3.20;99.90;;;;;;4961684;28;87885;-33
2023/01/29 03:51:06;;;;;;;28.60;22.60;;;3.20;99.90;;;;;;4957129;28;90324;-32
2023/01/29 03:53:42;;;;;;;32.90;25.13;;;3.20;99.90;;;;;;4961197;28;88804;-33
2023/01/29 03:56:37;;;;;;;31.33;23.45;;;3.10;99.90;;;;;;4960806;28;89270;-32
2023/01/29 03:59:15;;;;;;;37.00;25.52;;;3.20;99.90;;;;;;4956408;28;88978;-33
2023/01/29 04:01:54;;;;;;;34.67;24.80;;;3.20;99.90;;;;;;4961685;28;90335;-34
2023/01/29 04:04:25;;;;;;;27.80;24.80;;;3.20;99.90;;;;;;4961195;28;89428;-33
2023/01/29 04:06:54;;;;;;;32.08;24.77;;;3.20;99.90;;;;;;4960856;28;90002;-31
2023/01/29 04:09:38;;;;;;;29.67;25.02;;;3.20;99.90;;;;;;4960529;28;89900;-32
2023/01/29 04:12:09;;;;;;;35.95;23.65;;;3.20;99.90;;;;;;4961453;28;90871;-30
2023/01/29 04:14:36;;;;;;;32.83;26.42;;;3.10;99.90;;;;;;4961222;28;89169;-30
2023/01/29 04:17:11;;;;;;;30.10;24.08;;;3.10;99.90;;;;;;4960894;28;90103;-31
2023/01/29 04:19:38;;;;;;;29.95;25.42;;;3.10;99.90;;;;;;4960211;28;87925;-33
2023/01/29 04:22:12;;;;;;;32.55;28.08;;;3.20;99.90;;;;;;4961281;28;90299;-30
2023/01/29 04:24:39;;;;;;;32.15;25.98;;;3.20;99.90;;;;;;4960229;28;89511;-31
2023/01/29 04:27:21;;;;;;;28.75;24.85;;;3.20;99.90;;;;;;4961056;28;88282;-32
2023/01/29 04:30:17;;;;;;;32.40;24.95;;;3.10;99.90;;;;;;4960376;28;89366;-32
2023/01/29 04:33:01;;;;;;;30.52;24.52;;;3.20;99.90;;;;;;4959858;28;91270;-31
2023/01/29 04:35:53;;;;;;;34.15;26.17;;;3.20;99.90;;;;;;4960296;28;90706;-32
2023/01/29 04:38:41;;;;;;;35.85;26.67;;;3.20;99.90;;;;;;4960690;28;90769;-32
2023/01/29 04:41:23;;;;;;;30.25;24.33;;;3.20;99.90;;;;;;4960945;28;88957;-33
2023/01/29 04:44:11;;;;;;;32.70;25.63;;;3.20;99.90;;;;;;4960047;28;90646;-34
2023/01/29 04:47:02;;;;;;;32.53;25.52;;;3.30;99.90;;;;;;4960195;28;90874;-33
2023/01/29 04:49:33;;;;;;;38.47;27.45;;;3.30;99.90;;;;;;4960661;28;89996;-32
2023/01/29 04:52:14;;;;;;;33.08;26.33;;;3.30;99.90;;;;;;4960647;28;88209;-33
2023/01/29 04:54:54;;;;;;;33.38;28.08;;;3.30;99.90;;;;;;4960302;28;90584;-33
2023/01/29 04:57:32;;;;;;;37.40;29.55;;;3.30;99.90;;;;;;4959998;28;89590;-32
2023/01/29 05:00:08;;;;;;;33.08;27.20;;;3.30;99.90;;;;;;4959623;28;89579;-34
2023/01/29 05:02:38;;;;;;;33.83;28.23;;;3.30;99.90;;;;;;4959606;28;89430;-32
2023/01/29 05:05:05;;;;;;;35.03;29.35;;;3.30;99.90;;;;;;4960553;28;89877;-32
2023/01/29 05:07:34;;;;;;;39.23;28.30;;;3.30;99.90;;;;;;4959893;28;89232;-33
2023/01/29 05:10:01;;;;;;;36.45;29.70;;;3.40;99.90;;;;;;4959423;28;89625;-31
2023/01/29 05:12:29;;;;;;;32.42;27.45;;;3.40;99.90;;;;;;4960388;28;89204;-32
2023/01/29 05:14:59;;;;;;;31.30;25.92;;;3.40;99.90;;;;;;4959866;28;89799;-34
2023/01/29 05:17:25;;;;;;;35.58;30.00;;;3.50;99.90;;;;;;4960249;28;89591;-32
2023/01/29 05:19:51;;;;;;;34.15;29.38;;;3.50;99.90;;;;;;4960198;28;89070;-31
2023/01/29 05:22:21;;;;;;;41.38;31.30;;;3.50;99.90;;;;;;4960028;28;89601;-32
2023/01/29 05:24:48;;;;;;;35.53;29.63;;;3.50;99.90;;;;;;4959603;28;89848;-33
2023/01/29 05:30:03;;;;;;;34.50;29.98;;;3.50;99.90;;;;;;4959580;28;90668;-32
2023/01/29 05:32:29;;;;;;;39.67;31.88;;;3.50;99.90;;;;;;4960333;28;88573;-32
2023/01/29 05:34:54;;;;;;;40.40;32.70;;;3.50;99.90;;;;;;4958810;28;89817;-34
2023/01/29 05:37:20;;;;;;;40.28;31.27;;;3.50;99.90;;;;;;4959972;28;89837;-32
2023/01/29 05:39:46;;;;;;;40.83;32.58;;;3.50;99.90;;;;;;4959253;28;91086;-32
2023/01/29 05:42:11;;;;;;;35.45;31.60;;;3.50;99.90;;;;;;4959833;28;88508;-31
2023/01/29 05:44:37;;;;;;;39.15;33.80;;;3.50;99.90;;;;;;4959351;28;91303;-32
2023/01/29 05:47:02;;;;;;;40.60;34.17;;;3.60;99.90;;;;;;4959424;28;89938;-32
2023/01/29 05:49:28;;;;;;;39.25;33.50;;;3.60;99.90;;;;;;4959911;28;89222;-33
2023/01/29 05:51:53;;;;;;;36.53;31.63;;;3.60;99.90;;;;;;4959084;28;90285;-34
2023/01/29 05:54:19;;;;;;;37.33;31.85;;;3.60;99.90;;;;;;4959190;28;90455;-31
2023/01/29 05:56:45;;;;;;;36.22;31.60;;;3.60;99.90;;;;;;4959001;28;90161;-32
2023/01/29 05:59:10;;;;;;;39.95;35.55;;;3.70;99.90;;;;;;4959568;28;88249;-33
2023/01/29 06:01:36;;;;;;;35.30;30.98;;;3.70;99.90;;;;;;4959034;28;88949;-34
2023/01/29 06:04:02;;;;;;;39.45;32.75;;;3.60;99.90;;;;;;4959352;28;90218;-31
2023/01/29 06:06:27;;;;;;;43.30;36.08;;;3.70;99.90;;;;;;4959524;28;89722;-31
2023/01/29 06:08:54;;;;;;;37.35;31.38;;;3.60;99.90;;;;;;4958438;28;90653;-33
2023/01/29 06:11:20;;;;;;;37.67;31.42;;;3.60;99.90;;;;;;4959418;28;89563;-34
2023/01/29 06:13:46;;;;;;;39.35;32.72;;;3.60;99.90;;;;;;4958894;28;90080;-31
2023/01/29 06:16:13;;;;;;;43.55;33.58;;;3.70;99.90;;;;;;4958057;28;90569;-31
2023/01/29 06:18:39;;;;;;;37.63;32.47;;;3.60;99.90;;;;;;4959435;28;90131;-31
2023/01/29 06:21:07;;;;;;;37.90;31.80;;;3.70;99.90;;;;;;4959032;28;88299;-32
2023/01/29 06:23:32;;;;;;;37.23;31.53;;;3.60;99.90;;;;;;4958819;28;89268;-31
2023/01/29 06:26:04;;;;;;;38.25;28.83;;;3.60;99.90;;;;;;4958776;28;89806;-34
2023/01/29 06:28:30;;;;;;;37.83;32.53;;;3.60;99.90;;;;;;4958937;28;89618;-32
2023/01/29 06:31:00;;;;;;;40.45;32.50;;;3.60;99.90;;;;;;4958638;28;88753;-33
2023/01/29 06:33:26;;;;;;;38.13;31.25;;;3.60;99.90;;;;;;4959346;28;90177;-31
2023/01/29 06:35:56;;;;;;;38.85;32.83;;;3.60;99.90;;;;;;4958697;28;90040;-34
2023/01/29 06:38:22;;;;;;;39.08;32.28;;;3.60;99.90;;;;;;4959635;28;89426;-32
2023/01/29 06:40:48;;;;;;;38.75;31.95;;;3.60;99.90;;;;;;4958122;28;89779;-34
2023/01/29 06:43:14;;;;;;;36.65;30.45;;;3.60;99.90;;;;;;4958947;28;90308;-31
2023/01/29 06:45:46;;;;;;;37.20;33.20;;;3.60;99.90;;;;;;4957865;28;89648;-31
2023/01/29 06:48:12;;;;;;;36.15;31.35;;;3.60;99.90;;;;;;4959047;28;89432;-31
2023/01/29 06:50:37;;;;;;;42.80;33.53;;;3.70;99.90;;;;;;4958307;28;87801;-31
2023/01/29 06:53:03;;;;;;;37.75;33.15;;;3.60;99.90;;;;;;4959231;28;90109;-33
2023/01/29 06:55:29;;;;;;;36.40;32.40;;;3.60;99.90;;;;;;4958423;28;90005;-33
2023/01/29 06:57:54;;;;;;;40.25;31.77;;;3.60;99.90;;;;;;4958739;28;88851;-32
2023/01/29 07:00:20;;;;;;;39.22;31.85;;;3.60;99.90;;;;;;4958124;28;88349;-34
2023/01/29 07:02:48;;;;;;;37.90;30.88;;;3.70;99.90;;;;;;4958690;28;91227;-32
2023/01/29 07:05:14;;;;;;;40.35;30.73;;;3.70;99.90;;;;;;4958266;28;90798;-32
2023/01/29 07:07:39;;;;;;;36.40;31.55;;;3.70;99.90;;;;;;4958318;28;90343;-32
2023/01/29 07:10:06;;;;;;;42.60;31.45;;;3.70;99.90;;;;;;4958463;28;88680;-31
2023/01/29 07:12:32;;;;;;;35.80;31.92;;;3.70;99.90;;;;;;4958935;28;90653;-31
2023/01/29 07:14:57;;;;;;;41.42;33.05;;;3.60;99.90;;;;;;4958337;28;89772;-30
2023/01/29 07:17:23;;;;;;;35.30;31.42;;;3.60;99.90;;;;;;4958995;28;89587;-32
2023/01/29 07:19:48;;;;;;;39.90;30.70;;;3.60;99.90;;;;;;4957781;28;89980;-33
2023/01/29 07:22:15;;;;;;;37.60;32.85;;;3.60;99.90;;;;;;4958391;28;90155;-32
2023/01/29 07:24:41;;;;;;;39.80;33.53;;;3.60;99.90;;;;;;4958136;28;89278;-33
2023/01/29 07:27:06;;;;;;;44.50;34.38;;;3.60;99.90;;;;;;4961609;28;89003;-30
2023/01/29 07:29:32;;;;;;;36.45;32.47;;;3.60;99.90;;;;;;4961421;28;90488;-33
2023/01/29 07:31:57;;;;;;;34.53;29.35;;;3.60;99.90;;;;;;4960765;28;89858;-33
2023/01/29 07:34:23;;;;;;;35.42;31.52;;;3.60;99.90;;;;;;4961485;28;89749;-33
2023/01/29 07:36:52;;;;;;;35.78;30.55;;;3.70;99.90;;;;;;4961504;28;90303;-32
2023/01/29 07:39:17;;;;;;;43.08;34.38;;;3.70;99.90;;;;;;4961866;28;88480;-31
2023/01/29 07:41:43;;;;;;;41.15;34.80;;;3.60;99.90;;;;;;4961734;28;90237;-31
2023/01/29 07:44:09;;;;;;;39.30;32.60;;;3.60;99.90;;;;;;4961891;28;89534;-32
2023/01/29 07:46:34;;;;;;;37.35;32.38;;;3.60;99.90;;;;;;4961476;28;89786;-30
2023/01/29 07:49:00;;;;;;;45.08;35.92;;;3.60;99.90;;;;;;4961555;28;88395;-33
2023/01/29 07:51:26;;;;;;;40.13;30.52;;;3.60;99.90;;;;;;4960847;28;90855;-34
2023/01/29 07:53:52;;;;;;;39.05;32.97;;;3.60;99.90;;;;;;4961031;28;91197;-32
2023/01/29 07:56:18;;;;;;;39.47;31.25;;;3.50;99.90;;;;;;4961441;28;90214;-32
2023/01/29 07:58:43;;;;;;;35.33;27.95;;;3.60;99.90;;;;;;4960977;28;89116;-32
2023/01/29 08:01:09;;;;;;;38.63;28.27;;;3.60;99.90;;;;;;4961348;28;89236;-34
2023/01/29 08:03:35;;;;;;;48.05;35.90;;;3.70;99.90;;;;;;4961826;28;89740;-33
2023/01/29 08:06:02;;;;;;;38.92;32.75;;;3.60;99.90;;;;;;4961827;28;89666;-32
2023/01/29 08:08:28;;;;;;;38.90;32.70;;;3.70;99.90;;;;;;4961361;28;88751;-31
2023/01/29 08:10:54;;;;;;;44.88;34.80;;;3.60;99.90;;;;;;4960647;28;89164;-31
2023/01/29 08:13:20;;;;;;;39.38;31.50;;;3.60;99.90;;;;;;4961454;28;90489;-33
2023/01/29 08:15:45;;;;;;;36.72;31.92;;;3.60;99.90;;;;;;4958676;28;89635;-32
2023/01/29 08:18:12;;;;;;;42.05;31.00;;;3.60;99.90;;;;;;4943613;28;88464;-33
2023/01/29 08:20:38;;;;;;;45.38;35.83;;;3.60;99.90;;;;;;4955348;28;90450;-33
2023/01/29 08:23:06;;;;;;;39.85;32.08;;;3.60;99.90;;;;;;4957738;28;90230;-34
2023/01/29 08:25:32;;;;;;;42.17;34.88;;;3.60;99.90;;;;;;4957261;28;89531;-32
2023/01/29 08:27:59;;;;;;;38.00;30.05;;;3.60;99.90;;;;;;4959165;28;89445;-33
2023/01/29 08:30:30;;;;;;;46.08;33.72;;;3.60;99.90;;;;;;4958851;28;90298;-31
2023/01/29 08:32:56;;;;;;;38.60;31.60;;;3.60;99.90;;;;;;4958077;28;89264;-31
2023/01/29 08:35:22;;;;;;;36.17;29.40;;;3.60;99.90;;;;;;4957523;28;90004;-31
2023/01/29 08:37:57;;;;;;;39.03;31.33;;;3.70;99.90;;;;;;4956758;28;88543;-33
2023/01/29 08:40:22;;;;;;;42.80;32.47;;;3.70;99.90;;;;;;4958892;28;90002;-31
2023/01/29 08:42:48;;;;;;;42.70;33.00;;;3.70;99.90;;;;;;4957972;28;90341;-33
2023/01/29 08:45:14;;;;;;;41.75;31.95;;;3.70;99.90;;;;;;4957465;28;89436;-33
2023/01/29 08:47:47;;;;;;;39.60;31.65;;;3.70;99.90;;;;;;4957824;28;88306;-32
2023/01/29 08:50:13;;;;;;;46.03;34.13;;;3.70;99.90;;;;;;4957888;28;90214;-32
2023/01/29 08:52:38;;;;;;;44.38;34.97;;;3.70;99.90;;;;;;4958434;28;90195;-34
2023/01/29 08:55:04;;;;;;;40.05;32.00;;;3.70;99.90;;;;;;4958266;28;90442;-30
2023/01/29 08:57:30;;;;;;;39.80;33.10;;;3.80;99.90;;;;;;4957982;28;88768;-33
2023/01/29 08:59:55;;;;;;;36.00;30.00;;;3.80;99.90;;;;;;4958027;28;89109;-32
2023/01/29 09:02:21;;;;;;;39.85;32.85;;;3.80;99.90;;;;;;4957864;28;89775;-33
2023/01/29 09:04:47;;;;;;;37.13;31.88;;;3.80;99.90;;;;;;4957173;28;89738;-32
2023/01/29 09:07:12;;;;;;;39.13;32.47;;;3.80;99.90;;;;;;4957485;28;90623;-31
2023/01/29 09:09:38;;;;;;;45.38;35.05;;;3.80;99.90;;;;;;4957427;28;89877;-34
2023/01/29 09:12:04;;;;;;;38.70;32.78;;;3.80;99.90;;;;;;4958549;28;89917;-31
2023/01/29 09:14:29;;;;;;;44.85;33.80;;;3.90;99.90;;;;;;4957645;28;89099;-33
2023/01/29 09:16:55;;;;;;;36.90;30.35;;;3.90;99.90;;;;;;4958169;28;87611;-31
2023/01/29 09:19:21;;;;;;;39.15;32.00;;;3.90;99.90;;;;;;4957849;28;90325;-32
2023/01/29 09:21:48;;;;;;;38.38;32.63;;;4.00;99.90;;;;;;4957807;28;89988;-33
2023/01/29 09:24:14;;;;;;;42.40;35.83;;;4.00;99.90;;;;;;4958437;28;89882;-32
2023/01/29 09:26:39;;;;;;;42.17;35.60;;;4.00;99.90;;;;;;4957916;28;88726;-32
2023/01/29 09:29:05;;;;;;;35.25;31.10;;;4.00;99.90;;;;;;4958332;28;90480;-34
2023/01/29 09:31:31;;;;;;;42.00;34.97;;;4.10;99.90;;;;;;4957565;28;90756;-32
2023/01/29 09:33:57;;;;;;;41.53;32.67;;;4.10;99.90;;;;;;4956704;28;90427;-32
2023/01/29 09:36:22;;;;;;;35.08;28.70;;;4.10;99.90;;;;;;4957045;28;87482;-32
2023/01/29 09:38:48;;;;;;;41.33;32.45;;;4.10;99.90;;;;;;4956955;28;90037;-34
2023/01/29 09:41:36;;;;;;;34.67;30.10;;;4.10;99.90;;;;;;4957621;28;89503;-31
2023/01/29 09:44:09;;;;;;;34.10;28.92;;;4.10;99.90;;;;;;4957469;28;89590;-31
2023/01/29 09:46:41;;;;;;;39.65;31.25;;;4.20;99.90;;;;;;4957228;28;88891;-31
2023/01/29 09:49:17;;;;;;;47.28;34.25;;;4.20;99.90;;;;;;4992029;22;90442;-32
2023/01/29 09:51:48;;;;;;;41.83;33.08;;;4.30;99.90;;;;;;4938066;28;89396;-32
2023/01/29 09:54:22;;;;;;;43.40;34.85;;;4.40;99.90;;;;;;4937821;28;89766;-32
2023/01/29 09:56:52;;;;;;;39.70;30.77;;;4.40;99.90;;;;;;4937794;28;88862;-31
2023/01/29 09:59:21;;;;;;;44.33;32.55;;;4.40;99.90;;;;;;4938205;28;89057;-32
2023/01/29 10:02:13;;;;;;;44.58;36.45;;;4.50;99.90;;;;;;4937708;28;89412;-31
2023/01/29 10:05:02;;;;;;;39.55;29.83;;;4.60;99.90;;;;;;4937645;28;89813;-31
2023/01/29 10:07:33;;;;;;;;;;;4.60;99.90;;;;;;4938385;28;88174;-34
2023/01/29 10:10:17;;;;;;;38.13;29.08;;;4.50;99.90;;;;;;4939397;28;90520;-32
2023/01/29 10:13:26;;;;;;;35.13;28.83;;;4.60;99.90;;;;;;4937236;28;89128;-32
2023/01/29 10:16:20;;;;;;;41.53;28.25;;;4.60;99.90;;;;;;4857374;28;89515;-31
2023/01/29 10:18:56;;;;;;;44.05;32.70;;;4.60;99.90;;;;;;4858612;28;89081;-32
2023/01/29 10:21:30;;;;;;;35.65;31.08;;;4.60;99.90;;;;;;4917929;28;89873;-31
2023/01/29 10:24:20;;;;;;;37.78;29.17;;;4.50;99.90;;;;;;4937004;28;90842;-33
2023/01/29 10:26:46;;;;;;;40.83;32.53;;;4.60;99.90;;;;;;4936878;28;90746;-32
2023/01/29 10:29:18;;;;;;;39.50;35.17;;;4.60;99.90;;;;;;4937854;28;88612;-32
2023/01/29 10:31:48;;;;;;;49.25;37.50;;;4.60;99.90;;;;;;4937592;28;89887;-32
2023/01/29 10:34:24;;;;;;;46.70;35.40;;;4.70;99.90;;;;;;4936798;28;89219;-32
2023/01/29 10:36:50;;;;;;;38.70;32.13;;;4.70;99.90;;;;;;4937551;28;89664;-31
2023/01/29 10:39:19;;;;;;;46.03;36.30;;;4.60;99.90;;;;;;4937911;28;89705;-32
2023/01/29 10:42:04;;;;;;;41.85;34.55;;;4.60;99.90;;;;;;4937173;28;89697;-31
2023/01/29 10:44:42;;;;;;;42.58;30.85;;;4.60;99.90;;;;;;4937360;28;89841;-31
2023/01/29 10:47:26;;;;;;;42.43;33.03;;;4.60;99.90;;;;;;4937048;28;89153;-33
2023/01/29 10:50:17;;;;;;;39.35;34.78;;;4.70;99.90;;;;;;4935230;28;90233;-34
2023/01/29 10:52:51;;;;;;;46.13;35.97;;;4.60;99.90;;;;;;4936340;28;90201;-32
2023/01/29 10:55:40;;;;;;;32.75;26.50;;;4.60;99.90;;;;;;4935521;28;89795;-34
2023/01/29 10:58:24;;;;;;;37.75;31.67;;;4.70;99.90;;;;;;4917104;28;89545;-31
2023/01/29 11:00:51;;;;;;;45.40;33.42;;;4.70;99.90;;;;;;4936965;28;89343;-31
2023/01/29 11:03:21;;;;;;;40.40;32.63;;;4.70;99.90;;;;;;4939678;28;90127;-33
2023/01/29 11:06:20;;;;;;;44.35;34.72;;;4.60;99.90;;;;;;4938396;28;90210;-34
2023/01/29 11:08:55;;;;;;;39.30;33.65;;;4.70;99.90;;;;;;4937713;28;90840;-33
2023/01/29 11:11:30;;;;;;;36.35;32.42;;;4.60;99.90;;;;;;4939137;28;88493;-31
2023/01/29 11:14:06;;;;;;;37.67;33.60;;;4.60;99.90;;;;;;4938045;28;90210;-33
2023/01/29 11:16:43;;;;;;;39.28;30.98;;;4.70;99.90;;;;;;4939224;28;90646;-33
2023/01/29 11:19:10;;;;;;;44.80;36.93;;;4.60;99.90;;;;;;4939871;28;90573;-33
2023/01/29 11:21:58;;;;;;;45.28;37.13;;;4.70;99.90;;;;;;4939930;28;89019;-36
2023/01/29 11:24:25;;;;;;;44.20;35.33;;;4.60;99.90;;;;;;4929378;28;90359;-34
2023/01/29 11:26:53;;;;;;;44.60;33.20;;;4.60;99.90;;;;;;4939454;28;89627;-32
2023/01/29 11:29:37;;;;;;;39.47;34.33;;;4.60;99.90;;;;;;4938448;28;90941;-33
2023/01/29 11:32:06;;;;;;;43.28;34.75;;;4.70;99.90;;;;;;4938825;28;89581;-31
2023/01/29 11:34:32;;;;;;;42.67;35.65;;;4.70;99.90;;;;;;4939489;28;90358;-34
2023/01/29 11:37:00;;;;;;;41.53;34.13;;;4.80;99.90;;;;;;4938883;28;89668;-31
2023/01/29 11:39:27;;;;;;;43.55;32.78;;;4.80;99.90;;;;;;4938584;28;89781;-32
2023/01/29 11:41:58;;;;;;;47.78;34.28;;;4.80;99.90;;;;;;4938105;28;90895;-34
2023/01/29 11:44:39;;;;;;;48.47;36.63;;;4.80;99.90;;;;;;4935555;28;89085;-33
2023/01/29 11:47:15;;;;;;;46.78;37.22;;;4.80;99.90;;;;;;4939014;28;89764;-31
2023/01/29 11:49:51;;;;;;;46.92;33.47;;;4.80;99.90;;;;;;4929248;28;89885;-33
2023/01/29 11:52:21;;;;;;;42.55;34.65;;;4.90;99.90;;;;;;4939123;28;89548;-33
2023/01/29 11:54:58;;;;;;;41.60;33.67;;;4.80;99.90;;;;;;4938372;28;90036;-33
2023/01/29 11:57:31;;;;;;;44.35;35.60;;;4.80;99.90;;;;;;4939422;28;89565;-32
2023/01/29 12:00:01;;;;;;;47.13;37.55;;;4.80;99.90;;;;;;4938267;28;89362;-32
2023/01/29 12:02:37;;;;;;;38.95;32.53;;;4.80;99.90;;;;;;4939006;28;88725;-32
2023/01/29 12:05:14;;;;;;;39.15;33.72;;;4.90;99.90;;;;;;4938846;28;90617;-32
2023/01/29 12:07:42;;;;;;;44.22;37.63;;;4.90;99.90;;;;;;4938445;28;89441;-34
2023/01/29 12:10:35;;;;;;;44.70;35.67;;;4.90;99.90;;;;;;4937860;28;90375;-32
2023/01/29 12:13:09;;;;;;;45.53;37.00;;;4.80;99.90;;;;;;4938649;28;88119;-32
2023/01/29 12:15:40;;;;;;;40.78;33.72;;;4.90;99.90;;;;;;4938313;28;89571;-32
2023/01/29 12:18:15;;;;;;;47.17;37.28;;;4.90;99.90;;;;;;4938404;28;88710;-32
2023/01/29 12:20:48;;;;;;;44.30;34.80;;;4.90;99.90;;;;;;4938485;28;89500;-33
2023/01/29 12:23:43;;;;;;;46.80;35.65;;;4.90;99.90;;;;;;4919757;28;88240;-30
2023/01/29 12:26:14;;;;;;;44.03;35.97;;;4.90;99.90;;;;;;4921030;28;90058;-31
2023/01/29 12:29:12;;;;;;;43.10;36.60;;;4.80;99.90;;;;;;4939786;28;89737;-33
2023/01/29 12:32:03;;;;;;;49.57;32.50;;;4.90;99.90;;;;;;4929588;28;89745;-31
2023/01/29 12:34:38;;;;;;;46.38;36.38;;;4.90;99.90;;;;;;4935391;28;90323;-32
2023/01/29 12:37:21;;;;;;;43.22;35.15;;;4.90;99.90;;;;;;4939734;28;90532;-34
2023/01/29 12:39:48;;;;;;;38.97;34.92;;;4.90;99.90;;;;;;4940969;28;89330;-33
2023/01/29 12:42:21;;;;;;;43.42;34.72;;;4.90;99.90;;;;;;4939937;28;89620;-32
2023/01/29 12:44:53;;;;;;;47.72;36.13;;;5.00;99.90;;;;;;4939168;28;88759;-31
2023/01/29 12:47:32;;;;;;;38.17;32.65;;;5.00;99.90;;;;;;4938424;28;90757;-34
2023/01/29 12:50:06;;;;;;;44.55;37.78;;;4.90;99.90;;;;;;4937865;28;89665;-34
2023/01/29 12:52:38;;;;;;;44.08;35.33;;;4.90;99.90;;;;;;4926561;28;89139;-32
2023/01/29 12:55:26;;;;;;;44.50;36.47;;;4.80;99.90;;;;;;4938835;28;89146;-34
2023/01/29 12:57:58;;;;;;;45.05;36.67;;;4.80;99.90;;;;;;4938475;28;89409;-32
2023/01/29 13:00:27;;;;;;;49.13;36.08;;;4.70;99.90;;;;;;4937976;28;90720;-33
2023/01/29 13:03:17;;;;;;;43.78;35.20;;;4.80;99.90;;;;;;4938521;28;91563;-33
2023/01/29 13:05:49;;;;;;;41.92;34.90;;;4.80;99.90;;;;;;4932913;28;89484;-34
2023/01/29 13:08:29;;;;;;;49.00;38.70;;;4.60;99.90;;;;;;4937477;28;89743;-35
2023/01/29 13:10:59;;;;;;;47.45;36.05;;;4.70;99.90;;;;;;4937655;28;89819;-33
2023/01/29 13:13:37;;;;;;;43.95;35.85;;;4.60;99.90;;;;;;4937729;28;89531;-31
2023/01/29 13:16:08;;;;;;;42.00;32.42;;;4.70;99.90;;;;;;4937121;28;90043;-32
2023/01/29 13:18:41;;;;;;;40.33;34.35;;;4.70;99.90;;;;;;4936880;28;90533;-32
2023/01/29 13:21:28;;;;;;;41.45;33.38;;;4.60;99.90;;;;;;4937169;28;88899;-31
2023/01/29 13:24:04;;;;;;;41.42;34.33;;;4.60;99.90;;;;;;4936757;28;89688;-31
2023/01/29 13:26:30;;;;;;;47.00;35.40;;;4.60;99.90;;;;;;4935166;28;91238;-32
2023/01/29 13:28:57;;;;;;;43.90;35.97;;;4.60;99.90;;;;;;4936284;28;90325;-32
2023/01/29 13:31:52;;;;;;;42.13;33.85;;;4.60;99.90;;;;;;4934690;28;89196;-33